createdAt,value
2022-09-07T00:00:30.239Z,3.4
2022-09-07T00:02:28.873Z,3.2
2022-09-07T00:04:22.969Z,3.4
2022-09-07T00:06:25.165Z,2.9
2022-09-07T00:08:28.475Z,3.3
2022-09-07T00:10:26.789Z,3
2022-09-07T00:12:26.358Z,2.9
2022-09-07T00:14:24.981Z,3.1
2022-09-07T00:16:24.751Z,2.8
2022-09-07T00:18:26.905Z,3
2022-09-07T00:22:27.364Z,4.3
2022-09-07T00:24:22.736Z,3
2022-09-07T00:26:26.843Z,2.8
2022-09-07T00:28:27.028Z,3.3
2022-09-07T00:30:26.355Z,2.9
2022-09-07T00:32:23.980Z,3.4
2022-09-07T00:34:24.625Z,3.7
2022-09-07T00:38:25.709Z,3.3
2022-09-07T00:40:27.896Z,3.5
2022-09-07T00:42:25.958Z,3.2
2022-09-07T00:44:25.145Z,3.4
2022-09-07T00:48:25.771Z,2.8
2022-09-07T00:50:30.800Z,3.6
2022-09-07T00:52:28.860Z,3
2022-09-07T00:54:25.328Z,3.4
2022-09-07T00:56:30.137Z,3.2
2022-09-07T00:58:25.348Z,3.7
2022-09-07T01:00:26.231Z,3.3
2022-09-07T01:02:29.943Z,2.9
2022-09-07T01:04:24.099Z,3.1
2022-09-07T01:06:25.516Z,3
2022-09-07T01:08:28.429Z,3.5
2022-09-07T01:10:25.798Z,3.2
2022-09-07T01:12:26.530Z,3.1
2022-09-07T01:14:23.285Z,3.2
2022-09-07T01:16:27.810Z,3
2022-09-07T01:18:29.266Z,2.9
2022-09-07T01:20:24.072Z,2.8
2022-09-07T01:22:27.146Z,2.9
2022-09-07T01:24:24.884Z,3.1
2022-09-07T01:26:22.234Z,3.7
2022-09-07T01:28:28.240Z,2.9
2022-09-07T01:32:29.396Z,3.3
2022-09-07T01:34:24.485Z,3
2022-09-07T01:36:27.968Z,2.8
2022-09-07T01:38:25.298Z,3
2022-09-07T01:40:27.935Z,2.8
2022-09-07T01:42:25.231Z,2.9
2022-09-07T01:46:30.424Z,2.7
2022-09-07T01:48:24.011Z,2.8
2022-09-07T01:50:29.654Z,3
2022-09-07T01:52:26.114Z,3.2
2022-09-07T01:54:23.202Z,3.8
2022-09-07T01:56:27.587Z,2.5
2022-09-07T01:58:25.645Z,3.1
2022-09-07T02:00:20.323Z,3
2022-09-07T02:02:26.794Z,3.3
2022-09-07T02:04:25.733Z,3.5
2022-09-07T02:06:29.009Z,3
2022-09-07T02:08:27.353Z,3.1
2022-09-07T02:10:27.650Z,3.2
2022-09-07T02:12:26.676Z,3.4
2022-09-07T02:14:25.108Z,2.9
2022-09-07T02:16:20.930Z,3.4
2022-09-07T02:18:25.556Z,3.1
2022-09-07T02:20:27.975Z,3.8
2022-09-07T02:22:22.288Z,3.2
2022-09-07T02:24:26.847Z,3.6
2022-09-07T02:26:26.134Z,3.7
2022-09-07T02:28:28.997Z,4.3
2022-09-07T02:30:27.568Z,3.5
2022-09-07T02:32:24.351Z,3.6
2022-09-07T02:36:25.225Z,3.2
2022-09-07T02:38:27.436Z,3.9
2022-09-07T02:40:24.665Z,3.3
2022-09-07T02:42:24.981Z,3.7
2022-09-07T02:44:24.358Z,4.4
2022-09-07T02:46:29.170Z,5
2022-09-07T02:48:20.606Z,4.6
2022-09-07T02:50:24.816Z,5.4
2022-09-07T02:52:27.911Z,5
2022-09-07T02:54:23.587Z,5.1
2022-09-07T02:56:28.281Z,5.4
2022-09-07T02:58:24.656Z,5.1
2022-09-07T03:00:29.033Z,5.4
2022-09-07T03:02:30.481Z,5.3
2022-09-07T03:04:23.471Z,4.8
2022-09-07T03:06:25.157Z,4.9
2022-09-07T03:08:28.954Z,4.6
2022-09-07T03:12:25.425Z,4.4
2022-09-07T03:16:29.783Z,5
2022-09-07T03:18:24.078Z,4.1
2022-09-07T03:20:25.923Z,3.7
2022-09-07T03:22:26.334Z,4
2022-09-07T03:24:25.066Z,4.6
2022-09-07T03:26:29.261Z,4.4
2022-09-07T03:30:29.457Z,4
2022-09-07T03:32:26.933Z,4.2
2022-09-07T03:34:21.435Z,4.6
2022-09-07T03:36:25.482Z,4.2
2022-09-07T03:38:26.040Z,4.4
2022-09-07T03:40:28.062Z,4.2
2022-09-07T03:42:27.261Z,4.1
2022-09-07T03:44:25.806Z,3.6
2022-09-07T03:46:25.286Z,3.3
2022-09-07T03:50:27.788Z,3.4
2022-09-07T03:52:26.338Z,3.6
2022-09-07T03:56:20.948Z,3.2
2022-09-07T03:58:25.862Z,3.1
2022-09-07T04:00:27.439Z,3.2
2022-09-07T04:02:29.046Z,3.4
2022-09-07T04:04:23.061Z,3.5
2022-09-07T04:08:26.085Z,3.4
2022-09-07T04:10:21.325Z,3.3
2022-09-07T04:12:27.696Z,3.6
2022-09-07T04:14:25.703Z,3.4
2022-09-07T04:18:26.224Z,3.7
2022-09-07T04:20:24.864Z,4.3
2022-09-07T04:22:26.073Z,4.5
2022-09-07T04:24:23.321Z,4.4
2022-09-07T04:26:27.775Z,4.5
2022-09-07T04:28:25.010Z,5.1
2022-09-07T04:30:27.942Z,4.7
2022-09-07T04:32:30.159Z,5
2022-09-07T04:34:23.453Z,4.3
2022-09-07T04:36:19.735Z,4.5
2022-09-07T04:40:26.025Z,4.7
2022-09-07T04:42:24.946Z,4.4
2022-09-07T04:44:25.351Z,4.2
2022-09-07T04:46:24.476Z,4.6
2022-09-07T04:48:24.690Z,4.1
2022-09-07T04:50:28.837Z,4.3
2022-09-07T04:52:25.907Z,4.9
2022-09-07T04:54:23.380Z,4.2
2022-09-07T04:56:28.866Z,4.4
2022-09-07T05:00:27.207Z,3.9
2022-09-07T05:02:23.880Z,4
2022-09-07T05:04:21.850Z,3.9
2022-09-07T05:06:25.828Z,4.5
2022-09-07T05:08:27.054Z,4.3
2022-09-07T05:10:30.185Z,4.2
2022-09-07T05:12:27.140Z,4.1
2022-09-07T05:16:27.258Z,4
2022-09-07T05:18:25.125Z,4.5
2022-09-07T05:20:29.747Z,4.2
2022-09-07T05:22:28.528Z,4.6
2022-09-07T05:24:23.682Z,4
2022-09-07T05:28:21.437Z,4.4
2022-09-07T05:33:15.443Z,4.3
2022-09-07T05:35:32.681Z,4.1
2022-09-07T05:37:35.073Z,4.4
2022-09-07T05:39:26.983Z,4.1
2022-09-07T05:41:22.484Z,4.3
2022-09-07T05:43:21.920Z,4.5
2022-09-07T05:45:39.715Z,4.1
2022-09-07T05:47:35.246Z,4
2022-09-07T05:49:28.234Z,3.9
2022-09-07T05:51:16.223Z,4.6
2022-09-07T05:54:56.644Z,3.7
2022-09-07T05:57:28.118Z,4.3
2022-09-07T05:59:21.626Z,4.2
2022-09-07T06:00:59.609Z,4
2022-09-07T06:04:34.879Z,4.6
2022-09-07T06:06:31.310Z,4.4
2022-09-07T06:08:26.311Z,4.1
2022-09-07T06:16:30.347Z,4.3
2022-09-07T06:18:28.321Z,3.9
2022-09-07T06:20:27.694Z,3.6
2022-09-07T06:22:31.318Z,4.1
2022-09-07T06:24:28.929Z,4
2022-09-07T06:26:29.559Z,3.7
2022-09-07T06:28:26.705Z,3.5
2022-09-07T06:32:44.862Z,4
2022-09-07T06:34:28.875Z,3.8
2022-09-07T06:36:22.129Z,4.4
2022-09-07T06:38:31.665Z,4.9
2022-09-07T06:40:24.872Z,4.4
2022-09-07T06:42:29.852Z,5
2022-09-07T06:44:27.023Z,4.2
2022-09-07T06:47:04.679Z,4.5
2022-09-07T06:48:54.518Z,3.8
2022-09-07T06:50:39.845Z,3.7
2022-09-07T06:53:34.958Z,3.3
2022-09-07T06:57:39.193Z,3.4
2022-09-07T06:59:35.066Z,3.3
2022-09-07T07:01:29.895Z,3.4
2022-09-07T07:03:17.225Z,3.3
2022-09-07T07:05:07.179Z,3.2
2022-09-07T07:07:01.078Z,3.3
2022-09-07T07:08:56.859Z,3.4
2022-09-07T07:10:39.898Z,2.9
2022-09-07T07:14:23.897Z,3.8
2022-09-07T07:16:28.061Z,3.5
2022-09-07T07:18:27.460Z,3.2
2022-09-07T07:22:51.660Z,3.8
2022-09-07T07:26:29.028Z,3.5
2022-09-07T07:29:03.285Z,3.1
2022-09-07T07:30:46.078Z,3.5
2022-09-07T07:32:41.123Z,3.4
2022-09-07T07:34:32.114Z,3.5
2022-09-07T07:43:44.206Z,3.4
2022-09-07T07:46:00.161Z,3.1
2022-09-07T07:48:00.757Z,3.5
2022-09-07T07:49:46.904Z,3
2022-09-07T07:52:49.847Z,3.7
2022-09-07T07:55:48.454Z,3.3
2022-09-07T07:57:47.456Z,3
2022-09-07T08:01:53.046Z,3.5
2022-09-07T08:03:38.877Z,3.2
2022-09-07T08:05:25.486Z,3.5
2022-09-07T08:07:17.524Z,2.9
2022-09-07T08:09:06.115Z,3.4
2022-09-07T08:12:41.533Z,3.3
2022-09-07T08:14:19.796Z,3.4
2022-09-07T08:15:52.233Z,3.3
2022-09-07T08:17:33.770Z,3.4
2022-09-07T08:19:00.252Z,3.7
2022-09-07T08:20:42.814Z,3.3
2022-09-07T08:22:26.653Z,3.6
2022-09-07T08:24:23.762Z,3.9
2022-09-07T08:26:25.806Z,4.2
2022-09-07T08:28:21.266Z,4.5
2022-09-07T08:30:26.948Z,3.8
2022-09-07T08:32:29.441Z,4
2022-09-07T08:34:23.933Z,3.5
2022-09-07T08:36:24.875Z,3.4
2022-09-07T08:38:21.573Z,3.2
2022-09-07T08:40:27.912Z,3.7
2022-09-07T08:42:30.644Z,4.5
2022-09-07T08:44:24.587Z,3.5
2022-09-07T08:46:24.331Z,3.1
2022-09-07T08:48:28.113Z,3.8
2022-09-07T08:50:26.547Z,4.1
2022-09-07T08:52:26.246Z,3.5
2022-09-07T08:56:24.760Z,3.6
2022-09-07T08:58:52.074Z,4.6
2022-09-07T09:00:34.271Z,3.8
2022-09-07T09:02:38.385Z,4.4
2022-09-07T09:05:24.475Z,3.6
2022-09-07T09:07:08.040Z,3.4
2022-09-07T09:09:01.097Z,3.6
2022-09-07T09:10:44.963Z,3.4
2022-09-07T09:12:40.148Z,4
2022-09-07T09:14:24.365Z,3.2
2022-09-07T09:16:28.281Z,3.4
2022-09-07T09:18:27.845Z,3.9
2022-09-07T09:20:25.754Z,3.1
2022-09-07T09:22:25.045Z,3.6
2022-09-07T09:24:23.557Z,4
2022-09-07T09:26:21.641Z,3
2022-09-07T09:28:28.876Z,3.4
2022-09-07T09:30:27.242Z,3.8
2022-09-07T09:32:27.190Z,4.1
2022-09-07T09:34:33.370Z,6.3
2022-09-07T09:36:27.202Z,3.8
2022-09-07T09:38:27.795Z,3.4
2022-09-07T09:40:24.402Z,3.9
2022-09-07T09:42:25.976Z,4
2022-09-07T09:44:26.686Z,3.7
2022-09-07T09:48:32.844Z,3.4
2022-09-07T09:53:42.626Z,3
2022-09-07T09:55:33.913Z,3.2
2022-09-07T09:59:57.964Z,3.1
2022-09-07T10:05:30.003Z,3.3
2022-09-07T10:07:06.861Z,3.2
2022-09-07T10:08:56.848Z,3.8
2022-09-07T10:10:33.614Z,3.4
2022-09-07T10:14:44.818Z,3.3
2022-09-07T10:16:33.500Z,3
2022-09-07T10:18:19.205Z,3.5
2022-09-07T10:21:45.354Z,3.4
2022-09-07T10:23:34.839Z,3.6
2022-09-07T10:25:08.840Z,3.3
2022-09-07T10:26:53.351Z,3.2
2022-09-07T10:30:46.269Z,3.9
2022-09-07T10:32:42.788Z,3.5
2022-09-07T10:34:30.688Z,3.7
2022-09-07T10:36:25.798Z,4
2022-09-07T10:38:25.776Z,3.8
2022-09-07T10:40:26.704Z,4.1
2022-09-07T10:42:28.235Z,3.5
2022-09-07T10:44:22.016Z,3.4
2022-09-07T10:47:01.268Z,3.7
2022-09-07T10:48:45.609Z,3.3
2022-09-07T10:50:28.697Z,3.2
2022-09-07T10:52:23.271Z,3.8
2022-09-07T10:54:35.831Z,4.3
2022-09-07T10:56:27.403Z,3.4
2022-09-07T11:00:59.367Z,3.6
2022-09-07T11:03:25.452Z,4.1
2022-09-07T11:05:01.314Z,3.2
2022-09-07T11:06:51.145Z,3.5
2022-09-07T11:09:16.967Z,3.4
2022-09-07T11:10:56.419Z,3.7
2022-09-07T11:13:01.340Z,3.4
2022-09-07T11:14:57.625Z,3
2022-09-07T11:16:58.943Z,3.3
2022-09-07T11:18:52.942Z,3.2
2022-09-07T11:20:33.057Z,3.4
2022-09-07T11:22:53.414Z,3.5
2022-09-07T11:24:40.965Z,4.2
2022-09-07T11:26:31.523Z,6
2022-09-07T11:28:26.354Z,4.9
2022-09-07T11:30:27.110Z,4.6
2022-09-07T11:32:26.637Z,3.6
2022-09-07T11:34:29.681Z,3.4
2022-09-07T11:40:27.467Z,2.9
2022-09-07T11:42:48.909Z,3.1
2022-09-07T11:44:37.212Z,3.2
2022-09-07T11:46:28.038Z,3.5
2022-09-07T11:48:30.861Z,3.1
2022-09-07T11:50:21.706Z,2.8
2022-09-07T11:52:28.054Z,2.9
2022-09-07T11:54:23.610Z,3.1
2022-09-07T11:56:27.520Z,3.2
2022-09-07T11:58:22.761Z,3.3
2022-09-07T12:00:26.317Z,3
2022-09-07T12:02:42.037Z,2.9
2022-09-07T12:04:40.819Z,3.4
2022-09-07T12:06:29.151Z,3.3
2022-09-07T12:10:27.485Z,3.4
2022-09-07T12:12:30.337Z,3
2022-09-07T12:14:26.745Z,3.1
2022-09-07T12:16:28.029Z,3.2
2022-09-07T12:18:25.328Z,2.8
2022-09-07T12:20:29.691Z,3.3
2022-09-07T12:24:23.650Z,3
2022-09-07T12:26:26.077Z,2.9
2022-09-07T12:28:27.409Z,3
2022-09-07T12:34:38.915Z,2.5
2022-09-07T12:36:29.364Z,2.7
2022-09-07T12:38:25.336Z,2.9
2022-09-07T12:40:26.943Z,3
2022-09-07T12:42:42.765Z,2.7
2022-09-07T12:44:33.493Z,2.6
2022-09-07T12:46:22.773Z,3.2
2022-09-07T12:48:20.687Z,2.7
2022-09-07T12:50:22.162Z,2.5
2022-09-07T12:55:10.084Z,2.4
2022-09-07T12:57:30.551Z,2.3
2022-09-07T12:59:20.285Z,2.2
2022-09-07T13:04:50.532Z,2.8
2022-09-07T13:07:09.412Z,2.4
2022-09-07T13:09:06.100Z,2.2
2022-09-07T13:14:58.190Z,2.5
2022-09-07T13:17:22.899Z,2.3
2022-09-07T13:20:46.105Z,1.9
2022-09-07T13:22:40.158Z,2.2
2022-09-07T13:24:51.809Z,2.3
2022-09-07T13:26:38.061Z,2.2
2022-09-07T13:28:26.776Z,2.8
2022-09-07T13:30:25.429Z,2.4
2022-09-07T13:33:07.943Z,2.1
2022-09-07T13:34:49.699Z,2.3
2022-09-07T13:36:34.910Z,2.7
2022-09-07T13:38:31.252Z,2.5
2022-09-07T13:40:25.487Z,2.4
2022-09-07T13:42:30.149Z,2.1
2022-09-07T13:44:26.572Z,2.7
2022-09-07T13:46:25.833Z,2.5
2022-09-07T13:48:26.607Z,2
2022-09-07T13:50:28.113Z,2.5
2022-09-07T13:52:25.538Z,2.7
2022-09-07T13:58:21.507Z,2.8
2022-09-07T14:00:28.415Z,2.5
2022-09-07T14:02:28.729Z,2.6
2022-09-07T14:04:24.793Z,2.1
2022-09-07T14:06:29.002Z,2.2
2022-09-07T14:08:21.223Z,2.3
2022-09-07T14:12:26.800Z,2.4
2022-09-07T14:14:24.372Z,2.3
2022-09-07T14:16:23.955Z,2
2022-09-07T14:18:25.347Z,2.5
2022-09-07T14:20:26.212Z,2.3
2022-09-07T14:24:29.468Z,2.4
2022-09-07T14:26:26.424Z,2.3
2022-09-07T14:28:28.353Z,2.5
2022-09-07T14:30:28.808Z,2.7
2022-09-07T14:34:25.979Z,2.2
2022-09-07T14:36:44.039Z,2.4
2022-09-07T14:39:11.190Z,3.2
2022-09-07T14:40:56.544Z,2.5
2022-09-07T14:42:50.373Z,2.6
2022-09-07T14:46:28.106Z,2.7
2022-09-07T14:48:38.171Z,2.6
2022-09-07T14:55:18.431Z,3.3
2022-09-07T14:57:06.047Z,2.6
2022-09-07T14:58:54.763Z,2.5
2022-09-07T15:00:33.298Z,2.6
2022-09-07T15:02:41.998Z,2.7
2022-09-07T15:04:34.550Z,2.5
2022-09-07T15:08:59.271Z,2.4
2022-09-07T15:15:34.795Z,2.4
2022-09-07T15:17:48.035Z,2.5
2022-09-07T15:19:39.108Z,2.4
2022-09-07T15:21:28.702Z,2.9
2022-09-07T15:23:27.856Z,2.7
2022-09-07T15:25:12.121Z,2.3
2022-09-07T15:27:10.641Z,2.5
2022-09-07T15:33:54.649Z,2.4
2022-09-07T15:35:43.552Z,2.3
2022-09-07T15:38:00.964Z,2.4
2022-09-07T15:41:27.771Z,2.3
2022-09-07T15:43:56.861Z,2.2
2022-09-07T15:45:45.736Z,2.1
2022-09-07T15:47:57.345Z,2
2022-09-07T15:49:55.778Z,2.8
2022-09-07T15:52:06.161Z,2.3
2022-09-07T15:54:20.710Z,2.7
2022-09-07T15:55:59.009Z,2.2
2022-09-07T15:58:22.394Z,3
2022-09-07T15:59:57.556Z,2.8
2022-09-07T16:03:06.440Z,2.3
2022-09-07T16:04:55.315Z,2.7
2022-09-07T16:06:53.364Z,2.3
2022-09-07T16:09:21.762Z,2.1
2022-09-07T16:11:18.712Z,2.5
2022-09-07T16:15:20.737Z,2.3
2022-09-07T16:17:47.128Z,2.8
2022-09-07T16:19:41.092Z,2.4
2022-09-07T16:21:41.083Z,2.7
2022-09-07T16:24:01.663Z,2.4
2022-09-07T16:25:50.499Z,2.3
2022-09-07T16:27:46.536Z,2.4
2022-09-07T16:29:38.884Z,2.2
2022-09-07T16:31:28.940Z,2.3
2022-09-07T16:33:46.114Z,2.6
2022-09-07T16:35:40.733Z,2.4
2022-09-07T16:37:37.987Z,2.3
2022-09-07T16:40:36.131Z,2.6
2022-09-07T16:42:42.334Z,2.3
2022-09-07T16:44:37.971Z,2.4
2022-09-07T16:47:02.314Z,2.6
2022-09-07T16:49:04.644Z,2.5
2022-09-07T16:50:54.175Z,2.3
2022-09-07T16:52:57.728Z,2.8
2022-09-07T16:54:49.579Z,2.5
2022-09-07T16:59:16.787Z,2.7
2022-09-07T17:01:00.571Z,3
2022-09-07T17:03:00.042Z,2.4
2022-09-07T17:04:57.884Z,2.6
2022-09-07T17:08:56.413Z,2.4
2022-09-07T17:10:51.898Z,2.3
2022-09-07T17:12:44.690Z,2.5
2022-09-07T17:14:46.800Z,2.9
2022-09-07T17:16:38.961Z,3.1
2022-09-07T17:19:31.775Z,2.3
2022-09-07T17:21:26.719Z,2.7
2022-09-07T17:25:14.114Z,2.3
2022-09-07T17:27:03.800Z,2.5
2022-09-07T17:29:13.563Z,3
2022-09-07T17:31:09.850Z,2.6
2022-09-07T17:37:15.489Z,2.4
2022-09-07T17:40:12.247Z,2.5
2022-09-07T17:42:16.937Z,3
2022-09-07T17:44:42.503Z,2.8
2022-09-07T17:46:33.287Z,2.9
2022-09-07T17:48:35.203Z,2.8
2022-09-07T17:50:27.946Z,2.5
2022-09-07T17:52:21.288Z,2.8
2022-09-07T18:02:00.915Z,4.3
2022-09-07T18:03:52.473Z,3.7
2022-09-07T18:05:25.464Z,3.4
2022-09-07T18:07:10.329Z,3.9
2022-09-07T18:08:58.409Z,6.6
2022-09-07T18:13:09.709Z,8.8
2022-09-07T18:14:46.634Z,10.4
2022-09-07T18:16:36.795Z,14.6
2022-09-07T18:18:38.729Z,13.4
2022-09-07T18:20:36.171Z,10.3
2022-09-07T18:22:27.443Z,6.8
2022-09-07T18:24:40.882Z,8
2022-09-07T18:26:34.208Z,9.2
2022-09-07T18:29:03.867Z,9
2022-09-07T18:31:22.980Z,6.1
2022-09-07T18:33:09.275Z,4.2
2022-09-07T18:34:57.674Z,3.5
2022-09-07T18:36:55.567Z,3.3
2022-09-07T18:38:43.341Z,3
2022-09-07T18:40:21.480Z,3.6
2022-09-07T18:42:05.231Z,6.8
2022-09-07T18:43:37.970Z,7.3
2022-09-07T18:45:45.258Z,8.2
2022-09-07T18:47:32.762Z,7.2
2022-09-07T18:49:16.931Z,7.1
2022-09-07T18:50:44.027Z,5.9
2022-09-07T18:53:16.441Z,5.4
2022-09-07T18:54:50.976Z,4.2
2022-09-07T18:56:11.591Z,3.7
2022-09-07T18:58:41.463Z,3.9
2022-09-07T18:59:54.636Z,3.1
2022-09-07T19:01:22.231Z,3.2
2022-09-07T19:02:59.737Z,3.1
2022-09-07T19:04:24.817Z,3
2022-09-07T19:06:46.298Z,3.7
2022-09-07T19:08:39.951Z,3.3
2022-09-07T19:10:27.126Z,3.5
2022-09-07T19:18:25.818Z,3.4
2022-09-07T19:20:27.975Z,3.7
2022-09-07T19:22:26.755Z,3.8
2022-09-07T19:24:21.252Z,4
2022-09-07T19:26:21.651Z,4.2
2022-09-07T19:28:20.202Z,3.6
2022-09-07T19:30:27.057Z,3.3
2022-09-07T19:32:20.539Z,3.6
2022-09-07T19:34:26.342Z,3.2
2022-09-07T19:36:31.029Z,3.4
2022-09-07T19:40:29.694Z,3.8
2022-09-07T19:42:27.852Z,3.2
2022-09-07T19:44:23.189Z,3.4
2022-09-07T19:46:24.824Z,3.5
2022-09-07T19:48:26.352Z,3.2
2022-09-07T19:50:27.759Z,3.7
2022-09-07T19:52:25.915Z,3.5
2022-09-07T19:56:23.027Z,3.4
2022-09-07T19:58:29.905Z,3.7
2022-09-07T20:00:29.143Z,3.4
2022-09-07T20:02:24.065Z,3.2
2022-09-07T20:04:20.836Z,3.3
2022-09-07T20:06:30.797Z,3.8
2022-09-07T20:08:21.290Z,3.9
2022-09-07T20:10:20.949Z,3.4
2022-09-07T20:12:25.390Z,3.6
2022-09-07T20:14:23.062Z,3.4
2022-09-07T20:16:22.810Z,3.5
2022-09-07T20:18:28.586Z,2.9
2022-09-07T20:20:22.017Z,3.3
2022-09-07T20:22:22.430Z,3.5
2022-09-07T20:24:23.106Z,3.3
2022-09-07T20:26:29.290Z,3.6
2022-09-07T20:28:26.698Z,3.9
2022-09-07T20:30:25.820Z,3.4
2022-09-07T20:32:24.475Z,3.1
2022-09-07T20:34:25.621Z,3.6
2022-09-07T20:36:26.985Z,3.5
2022-09-07T20:38:24.713Z,4.3
2022-09-07T20:40:25.076Z,3.5
2022-09-07T20:42:28.438Z,4
2022-09-07T20:48:28.345Z,3.6
2022-09-07T20:50:26.577Z,3.7
2022-09-07T20:52:26.870Z,3.4
2022-09-07T20:54:26.397Z,4
2022-09-07T20:56:26.522Z,3.3
2022-09-07T20:58:25.703Z,4.1
2022-09-07T21:00:29.179Z,3.6
2022-09-07T21:02:27.056Z,4
2022-09-07T21:04:24.914Z,3.7
2022-09-07T21:06:27.038Z,3.9
2022-09-07T21:08:28.516Z,3.7
2022-09-07T21:10:25.040Z,4.7
2022-09-07T21:12:28.233Z,4.1
2022-09-07T21:14:22.587Z,4.7
2022-09-07T21:16:29.541Z,3.9
2022-09-07T21:18:25.493Z,3.8
2022-09-07T21:20:24.674Z,4.1
2022-09-07T21:22:29.434Z,3.8
2022-09-07T21:24:26.262Z,4
2022-09-07T21:26:27.233Z,4.1
2022-09-07T21:28:24.707Z,3.9
2022-09-07T21:30:23.112Z,4.1
2022-09-07T21:32:27.996Z,4.2
2022-09-07T21:34:22.984Z,4
2022-09-07T21:36:29.257Z,3.6
2022-09-07T21:38:27.714Z,4
2022-09-07T21:40:23.819Z,3.7
2022-09-07T21:42:24.663Z,3.8
2022-09-07T21:44:25.174Z,3.7
2022-09-07T21:46:26.588Z,3.6
2022-09-07T21:50:24.754Z,3.7
2022-09-07T21:52:21.663Z,3.6
2022-09-07T21:54:21.014Z,3.9
2022-09-07T21:56:26.371Z,3.6
2022-09-07T21:58:29.475Z,3.5
2022-09-07T22:02:33.928Z,3.7
2022-09-07T22:04:28.089Z,4
2022-09-07T22:06:27.221Z,4.2
2022-09-07T22:08:28.445Z,3.6
2022-09-07T22:10:29.802Z,4.1
2022-09-07T22:12:26.478Z,3.4
2022-09-07T22:14:25.155Z,3.8
2022-09-07T22:16:24.305Z,3.4
2022-09-07T22:18:30.321Z,3.2
2022-09-07T22:20:26.416Z,3.4
2022-09-07T22:24:21.746Z,3.5
2022-09-07T22:26:27.249Z,3.7
2022-09-07T22:28:24.726Z,3.4
2022-09-07T22:30:26.744Z,3.6
2022-09-07T22:32:28.098Z,3.2
2022-09-07T22:34:25.017Z,3.6
2022-09-07T22:36:25.258Z,3.8
2022-09-07T22:38:24.204Z,3.7
2022-09-07T22:40:23.446Z,3.3
2022-09-07T22:42:24.705Z,3.4
2022-09-07T22:44:24.442Z,4
2022-09-07T22:46:27.266Z,3.7
2022-09-07T22:50:27.937Z,3.6
2022-09-07T22:52:26.032Z,3.7
2022-09-07T22:54:25.509Z,3.9
2022-09-07T22:56:24.294Z,5.4
2022-09-07T22:58:29.032Z,5.9
2022-09-07T23:00:21.453Z,4.2
2022-09-07T23:02:25.440Z,3.6
2022-09-07T23:06:25.845Z,3.7
2022-09-07T23:08:24.624Z,4.4
2022-09-07T23:10:26.965Z,3.7
2022-09-07T23:12:27.316Z,3.1
2022-09-07T23:14:25.459Z,3.9
2022-09-07T23:16:26.763Z,3.3
2022-09-07T23:18:20.681Z,3.5
2022-09-07T23:20:25.321Z,3.6
2022-09-07T23:22:26.889Z,3.5
2022-09-07T23:24:23.963Z,3.9
2022-09-07T23:30:24.232Z,3
2022-09-07T23:32:24.647Z,3.7
2022-09-07T23:34:24.780Z,4
2022-09-07T23:36:25.371Z,3.5
2022-09-07T23:38:23.673Z,3.4
2022-09-07T23:40:25.258Z,3.6
2022-09-07T23:42:26.295Z,4.1
2022-09-07T23:44:23.513Z,3.2
2022-09-07T23:48:26.331Z,3.1
2022-09-07T23:50:27.649Z,3.5
2022-09-07T23:54:24.738Z,3.3
2022-09-07T23:56:25.832Z,3.7
2022-09-07T23:58:27.529Z,3.6
